Time;durP1;ratioP1;P1;durP2;ratioP2;P2;SDS_P1;SDS_P2;PMS_P1;PMS_P2;Temp;Humidity;BMP_temperature;BMP_pressure;BME280_temperature;BME280_humidity;BME280_pressure;Samples;Min_cycle;Max_cycle;Signal;HPM_P1;HPM_P2
2024/02/16 00:00:13;;;;;;;8.20;4.70;;;;;;;5.04;69.58;99845.02;105724;1259;72384;-27
2024/02/16 00:02:41;;;;;;;12.70;5.50;;;;;;;4.71;69.06;99840.48;105703;1254;73176;-27
2024/02/16 00:05:11;;;;;;;7.50;4.10;;;;;;;4.53;69.67;99835.73;105778;1257;72497;-28
2024/02/16 00:07:39;;;;;;;8.80;4.20;;;;;;;4.32;70.30;99834.76;105515;1260;61153;-27
2024/02/16 00:10:07;;;;;;;5.70;3.90;;;;;;;4.12;70.84;99835.77;105631;1257;61107;-27
2024/02/16 00:12:34;;;;;;;4.50;3.50;;;;;;;3.95;71.10;99829.79;105691;1254;73726;-27
2024/02/16 00:15:02;;;;;;;3.00;2.30;;;;;;;3.70;72.03;99830.93;105738;1260;74442;-27
2024/02/16 00:17:30;;;;;;;6.70;3.60;;;;;;;4.21;71.88;99835.19;105694;1257;71591;-27
2024/02/16 00:19:58;;;;;;;7.90;5.20;;;;;;;4.82;70.16;99834.48;105725;1260;61116;-27
2024/02/16 00:22:25;;;;;;;8.10;5.60;;;;;;;5.00;69.11;99833.83;105814;1254;61103;-27
2024/02/16 00:24:53;;;;;;;8.90;4.70;;;;;;;4.94;69.13;99830.68;105910;1254;73807;-27
2024/02/16 00:27:20;;;;;;;8.00;4.20;;;;;;;4.73;69.34;99832.16;105891;1257;74307;-27
2024/02/16 00:29:47;;;;;;;7.40;4.80;;;;;;;4.53;69.66;99832.66;105886;1255;72534;-27
2024/02/16 00:32:15;;;;;;;5.80;4.10;;;;;;;3.86;71.70;99829.11;105638;1257;61046;-27
2024/02/16 00:34:43;;;;;;;4.30;3.20;;;;;;;3.14;75.19;99825.92;105729;1256;61054;-27
2024/02/16 00:37:11;;;;;;;3.30;2.30;;;;;;;3.51;74.21;99828.83;105626;1256;73874;-27
2024/02/16 00:39:42;;;;;;;3.60;2.50;;;;;;;4.00;73.26;99831.61;105791;1257;73967;-27
2024/02/16 00:42:09;;;;;;;3.40;2.90;;;;;;;4.76;70.50;99834.20;105529;1257;72503;-27
2024/02/16 00:44:36;;;;;;;5.30;4.00;;;;;;;4.95;69.33;99832.87;105700;1257;61130;-27
2024/02/16 00:47:09;;;;;;;8.70;5.60;;;;;;;4.45;69.72;99836.45;105854;1254;61157;-27
2024/02/16 00:49:36;;;;;;;12.20;7.50;;;;;;;3.87;72.15;99837.12;105901;1257;73500;-27
2024/02/16 00:52:04;;;;;;;10.30;6.00;;;;;;;3.42;74.06;99839.30;105899;1254;74300;-27
2024/02/16 00:54:31;;;;;;;13.90;6.00;;;;;;;3.48;74.36;99847.11;105758;1260;71281;-27
2024/02/16 00:57:02;;;;;;;7.20;3.00;;;;;;;3.28;75.34;99846.86;105635;1259;61157;-27
2024/02/16 00:59:30;;;;;;;8.90;3.90;;;;;;;3.96;73.91;99845.02;105676;1254;61084;-28
2024/02/16 01:01:57;;;;;;;12.80;4.50;;;;;;;4.70;71.16;99845.31;105562;1260;74368;-27
2024/02/16 01:04:24;;;;;;;12.20;5.80;;;;;;;4.75;69.78;99844.09;105874;1256;74200;-27
2024/02/16 01:06:51;;;;;;;9.80;6.40;;;;;;;4.60;69.72;99841.14;105561;1260;72689;-27
2024/02/16 01:09:18;;;;;;;10.20;6.50;;;;;;;4.34;70.48;99838.81;105670;1254;61167;-27
2024/02/16 01:11:46;;;;;;;10.90;6.30;;;;;;;4.17;71.22;99838.48;105855;1254;61193;-28
2024/02/16 01:14:14;;;;;;;8.90;4.70;;;;;;;4.14;71.16;99831.91;105756;1255;73835;-27
2024/02/16 01:16:41;;;;;;;6.90;5.50;;;;;;;3.77;72.17;99831.03;105878;1254;74679;-27
2024/02/16 01:19:09;;;;;;;28.60;10.10;;;;;;;3.67;73.13;99827.66;105849;1255;72735;-27
2024/02/16 01:21:37;;;;;;;11.20;5.60;;;;;;;4.17;72.70;99826.98;105661;1254;60992;-27
2024/02/16 01:24:05;;;;;;;18.70;8.80;;;;;;;4.76;70.30;99826.48;105669;1253;61201;-27
2024/02/16 01:26:32;;;;;;;16.60;6.60;;;;;;;4.97;69.55;99830.38;105694;1254;73841;-27
2024/02/16 01:29:00;;;;;;;11.10;4.80;;;;;;;4.89;68.96;99826.59;105883;1256;74107;-27
2024/02/16 01:31:27;;;;;;;10.50;5.10;;;;;;;4.70;69.32;99825.04;105884;1254;73178;-27
2024/02/16 01:33:54;;;;;;;8.90;4.60;;;;;;;4.57;69.56;99826.98;105890;1254;61165;-27
2024/02/16 01:36:22;;;;;;;7.10;4.80;;;;;;;4.07;70.72;99823.27;105699;1255;61106;-27
2024/02/16 01:38:49;;;;;;;7.00;4.80;;;;;;;3.98;71.08;99823.11;105946;1254;73740;-28
2024/02/16 01:41:17;;;;;;;4.00;2.50;;;;;;;3.89;71.49;99819.20;105688;1254;74390;-27
2024/02/16 01:43:44;;;;;;;4.30;2.80;;;;;;;4.40;71.64;99815.50;105842;1254;72526;-27
2024/02/16 01:46:11;;;;;;;6.00;3.90;;;;;;;5.10;69.50;99817.20;105900;1257;61125;-27
2024/02/16 01:48:40;;;;;;;5.10;3.40;;;;;;;5.28;68.37;99811.23;105925;1256;61167;-27
2024/02/16 01:51:08;;;;;;;3.60;2.80;;;;;;;5.15;68.10;99816.99;105884;1256;72865;-27
2024/02/16 01:53:38;;;;;;;4.20;2.70;;;;;;;4.94;67.95;99811.76;105825;1254;74347;-28
2024/02/16 01:56:06;;;;;;;3.80;3.00;;;;;;;4.68;68.72;99809.98;105595;1254;72642;-27
2024/02/16 01:58:33;;;;;;;4.10;3.20;;;;;;;4.45;69.09;99812.88;105618;1257;61147;-27
2024/02/16 02:01:01;;;;;;;9.40;3.10;;;;;;;4.30;69.59;99813.89;105445;1260;61115;-27
2024/02/16 02:04:20;;;;;;;3.20;2.50;;;;;;;4.13;70.16;99813.40;105618;1254;73660;-27
2024/02/16 02:06:47;;;;;;;4.10;2.90;;;;;;;4.89;69.66;99819.89;105890;1256;74407;-27
2024/02/16 02:09:14;;;;;;;5.10;3.00;;;;;;;5.33;68.02;99816.31;105682;1260;72536;-27
2024/02/16 02:11:42;;;;;;;4.60;3.50;;;;;;;5.37;67.60;99821.45;105667;1254;61073;-27
2024/02/16 02:14:09;;;;;;;3.30;2.40;;;;;;;5.23;67.35;99820.91;105717;1252;61186;-27
2024/02/16 02:16:37;;;;;;;2.50;2.00;;;;;;;5.00;67.55;99823.00;105896;1254;73819;-28
2024/02/16 02:19:18;;;;;;;3.00;2.00;;;;;;;4.51;68.57;99826.05;105891;1254;74135;-27
2024/02/16 02:21:45;;;;;;;2.60;1.90;;;;;;;4.34;69.20;99826.98;105685;1255;72664;-27
2024/02/16 02:24:12;;;;;;;2.40;1.90;;;;;;;4.22;69.47;99828.64;105777;1256;60984;-27
2024/02/16 02:26:39;;;;;;;2.70;1.50;;;;;;;4.00;70.09;99831.81;105686;1259;61209;-27
2024/02/16 02:29:06;;;;;;;2.10;1.90;;;;;;;4.50;70.29;99833.14;105956;1254;73763;-27
2024/02/16 02:31:34;;;;;;;2.50;2.00;;;;;;;5.25;68.66;99832.88;105799;1257;74163;-27
2024/02/16 02:34:01;;;;;;;3.00;2.20;;;;;;;5.44;67.41;99840.58;105850;1254;72652;-27
2024/02/16 02:36:29;;;;;;;3.10;2.80;;;;;;;5.32;67.13;99839.45;105880;1254;61148;-27
2024/02/16 02:38:57;;;;;;;5.70;3.40;;;;;;;4.89;67.05;99841.20;105709;1258;61134;-27
2024/02/16 02:41:24;;;;;;;31.90;11.20;;;;;;;4.18;69.72;99842.06;105757;1259;73785;-27
2024/02/16 02:43:52;;;;;;;47.20;21.90;;;;;;;3.98;71.05;99848.38;105915;1254;74074;-27
2024/02/16 02:46:19;;;;;;;31.60;15.80;;;;;;;4.06;70.84;99847.88;105699;1254;72655;-27
2024/02/16 02:48:46;;;;;;;17.30;12.40;;;;;;;3.64;72.46;99853.02;105780;1258;61141;-27
2024/02/16 02:51:19;;;;;;;24.60;15.70;;;;;;;3.76;72.92;99854.23;105718;1257;61062;-27
2024/02/16 02:53:46;;;;;;;11.70;8.00;;;;;;;4.34;70.58;99855.30;105925;1254;74324;-27
2024/02/16 02:56:13;;;;;;;8.50;5.30;;;;;;;4.59;69.72;99852.16;105741;1259;74297;-27
2024/02/16 02:58:40;;;;;;;6.20;4.20;;;;;;;4.19;70.61;99854.40;105907;1254;72631;-27
2024/02/16 03:01:08;;;;;;;6.40;4.90;;;;;;;4.09;70.74;99854.94;105895;1254;61039;-27
2024/02/16 03:03:36;;;;;;;7.30;4.30;;;;;;;3.68;72.42;99850.78;105724;1254;61240;-27
2024/02/16 03:06:04;;;;;;;6.70;4.90;;;;;;;3.05;74.87;99850.27;105960;1254;73638;-27
2024/02/16 03:08:31;;;;;;;8.50;4.20;;;;;;;3.28;75.22;99855.94;105710;1260;72139;-27
2024/02/16 03:11:00;;;;;;;5.30;3.20;;;;;;;4.51;72.02;99859.75;105911;1254;72499;-27
2024/02/16 03:13:28;;;;;;;17.30;11.20;;;;;;;5.03;68.54;99859.35;105628;1254;61054;-27
2024/02/16 03:15:55;;;;;;;14.00;8.80;;;;;;;5.05;68.04;99858.23;105577;1257;61112;-27
2024/02/16 03:18:22;;;;;;;11.00;6.60;;;;;;;4.85;68.27;99864.64;105763;1254;73799;-27
2024/02/16 03:20:50;;;;;;;5.50;3.10;;;;;;;4.19;69.86;99862.60;105898;1254;74317;-26
2024/02/16 03:23:18;;;;;;;5.50;2.60;;;;;;;3.83;72.00;99858.27;105671;1254;73101;-27
2024/02/16 03:25:45;;;;;;;4.40;3.10;;;;;;;3.82;71.93;99859.87;105594;1253;173549;-27
2024/02/16 03:28:12;;;;;;;4.80;3.00;;;;;;;3.77;72.31;99864.02;105586;1252;61141;-27
2024/02/16 03:30:40;;;;;;;3.30;1.80;;;;;;;3.18;74.25;99865.23;105524;1254;73875;-27
2024/02/16 03:33:07;;;;;;;11.70;5.50;;;;;;;3.24;75.35;99869.50;105749;1254;72890;-27
2024/02/16 03:35:36;;;;;;;11.40;5.70;;;;;;;3.75;73.19;99864.95;105710;1259;71335;-28
2024/02/16 03:38:04;;;;;;;5.70;3.60;;;;;;;4.53;71.38;99865.50;105742;1254;61196;-27
2024/02/16 03:40:31;;;;;;;6.60;3.70;;;;;;;4.42;70.25;99862.71;105739;1257;61320;-27
2024/02/16 03:42:59;;;;;;;5.80;3.50;;;;;;;4.17;71.14;99862.89;105688;1254;73934;-27
2024/02/16 03:45:29;;;;;;;8.30;4.60;;;;;;;4.21;70.74;99859.98;105937;1254;74272;-27
2024/02/16 03:47:56;;;;;;;5.10;3.40;;;;;;;4.05;70.68;99857.02;105910;1254;72659;-27
2024/02/16 03:50:23;;;;;;;4.90;3.30;;;;;;;3.93;70.78;99854.45;105696;1254;61152;-27
2024/02/16 03:52:50;;;;;;;4.40;2.30;;;;;;;3.80;71.57;99852.89;105522;1254;61151;-27
2024/02/16 03:55:18;;;;;;;5.70;2.80;;;;;;;4.36;71.52;99861.40;105816;1254;74390;-27
2024/02/16 03:57:45;;;;;;;5.90;3.80;;;;;;;5.09;69.59;99860.79;105760;1256;74786;-27
2024/02/16 04:00:13;;;;;;;8.00;4.00;;;;;;;5.31;68.49;99862.75;105668;1254;72497;-27
2024/02/16 04:02:41;;;;;;;3.40;2.60;;;;;;;5.22;68.19;99857.63;105644;1254;61102;-28
2024/02/16 04:05:09;;;;;;;5.40;2.90;;;;;;;4.95;68.07;99855.56;105589;1256;61183;-27
2024/02/16 04:07:36;;;;;;;5.00;3.00;;;;;;;4.64;68.32;99854.03;105760;1254;73561;-27
2024/02/16 04:10:04;;;;;;;5.30;3.10;;;;;;;4.41;69.07;99852.10;105920;1256;74841;-27
2024/02/16 04:12:31;;;;;;;3.80;2.60;;;;;;;4.20;69.68;99851.27;105698;1254;72685;-27
2024/02/16 04:14:58;;;;;;;2.20;1.70;;;;;;;3.97;70.29;99860.11;105905;1256;61150;-27
2024/02/16 04:17:25;;;;;;;2.80;2.00;;;;;;;4.35;71.06;99864.55;105833;1255;61118;-27
2024/02/16 04:19:52;;;;;;;4.00;2.50;;;;;;;4.99;69.14;99865.05;105798;1254;73808;-27
2024/02/16 04:22:20;;;;;;;4.00;3.10;;;;;;;4.88;68.21;99868.77;105587;1259;74343;-27
2024/02/16 04:24:47;;;;;;;5.40;3.30;;;;;;;4.54;69.71;99870.83;105639;1256;72540;-27
2024/02/16 04:27:14;;;;;;;4.90;2.90;;;;;;;4.63;69.39;99866.10;105729;1252;61091;-27
2024/02/16 04:29:41;;;;;;;4.90;3.50;;;;;;;4.39;69.87;99860.59;105731;1257;61154;-27
2024/02/16 04:32:09;;;;;;;4.80;3.20;;;;;;;4.23;70.35;99866.92;105868;1254;73865;-27
2024/02/16 04:34:36;;;;;;;4.50;3.00;;;;;;;4.01;71.12;99865.11;105729;1254;74397;-27
2024/02/16 04:37:03;;;;;;;4.80;2.70;;;;;;;3.74;72.35;99866.86;105634;1259;72728;-27
2024/02/16 04:39:30;;;;;;;3.60;2.70;;;;;;;4.04;72.63;99870.11;105699;1254;61067;-27
2024/02/16 04:41:57;;;;;;;7.20;4.40;;;;;;;4.44;70.67;99867.60;105525;1260;61110;-27
2024/02/16 04:44:25;;;;;;;5.20;3.80;;;;;;;4.59;70.62;99861.65;105672;1255;73637;-28
2024/02/16 04:46:52;;;;;;;7.50;3.40;;;;;;;4.80;69.86;99867.80;105846;1256;74079;-27
2024/02/16 04:49:20;;;;;;;3.80;2.80;;;;;;;4.69;69.55;99861.04;105713;1254;72573;-27
2024/02/16 04:51:47;;;;;;;3.90;2.90;;;;;;;4.52;70.04;99859.16;105544;1258;61099;-27
2024/02/16 04:54:14;;;;;;;2.80;2.40;;;;;;;4.40;70.08;99859.36;105838;1257;61064;-27
2024/02/16 04:56:42;;;;;;;3.60;2.60;;;;;;;4.15;70.13;99865.21;105874;1257;73784;-27
2024/02/16 04:59:09;;;;;;;2.70;2.00;;;;;;;3.93;71.12;99864.38;105743;1260;74597;-27
2024/02/16 05:01:36;;;;;;;2.30;1.70;;;;;;;4.42;71.49;99859.94;105936;1254;73149;-27
2024/02/16 05:04:04;;;;;;;5.20;2.90;;;;;;;5.16;69.73;99858.96;105787;1253;61159;-27
2024/02/16 05:06:31;;;;;;;5.50;3.80;;;;;;;5.33;68.53;99855.39;105605;1259;61717;-27
2024/02/16 05:08:58;;;;;;;7.20;4.00;;;;;;;5.24;68.27;99854.27;105670;1254;73870;-28
2024/02/16 05:11:26;;;;;;;10.50;4.10;;;;;;;5.04;68.61;99856.73;105811;1254;74813;-27
2024/02/16 05:13:54;;;;;;;10.60;4.80;;;;;;;4.86;68.83;99863.19;105602;1254;72472;-27
2024/02/16 05:16:21;;;;;;;12.30;6.30;;;;;;;4.68;68.94;99865.56;105793;1254;61129;-27
2024/02/16 05:18:48;;;;;;;13.30;6.60;;;;;;;4.35;69.75;99866.11;105777;1252;61173;-27
2024/02/16 05:21:15;;;;;;;10.20;4.90;;;;;;;4.09;70.56;99863.25;105630;1258;72572;-27
2024/02/16 05:23:42;;;;;;;25.70;12.10;;;;;;;4.56;70.93;99870.18;105839;1254;74125;-27
2024/02/16 05:26:09;;;;;;;26.40;13.10;;;;;;;5.32;69.02;99873.67;105877;1254;72549;-28
2024/02/16 05:28:37;;;;;;;16.00;7.50;;;;;;;5.38;68.60;99876.16;105936;1253;61872;-27
2024/02/16 05:31:14;;;;;;;20.60;9.20;;;;;;;5.27;68.50;99879.80;105842;1256;61156;-27
2024/02/16 05:33:41;;;;;;;12.40;6.00;;;;;;;5.02;68.68;99886.27;105684;1254;72529;-27
2024/02/16 05:36:09;;;;;;;13.30;6.70;;;;;;;4.80;69.06;99885.01;105694;1254;74293;-27
2024/02/16 05:38:41;;;;;;;16.60;7.80;;;;;;;4.50;69.65;99888.33;105915;1253;72712;-27
2024/02/16 05:41:08;;;;;;;12.60;6.30;;;;;;;4.27;70.47;99890.52;105675;1254;61059;-27
2024/02/16 05:43:35;;;;;;;9.50;3.70;;;;;;;4.09;71.08;99890.39;105731;1253;61176;-27
2024/02/16 05:46:02;;;;;;;12.80;6.00;;;;;;;4.51;71.45;99890.02;105803;1254;73730;-27
2024/02/16 05:48:30;;;;;;;13.60;4.90;;;;;;;5.19;69.82;99888.94;105866;1252;74321;-27
2024/02/16 05:51:00;;;;;;;10.50;5.80;;;;;;;5.34;68.72;99888.94;105916;1254;72467;-27
2024/02/16 05:53:28;;;;;;;12.00;5.90;;;;;;;5.23;68.74;99887.58;105434;1254;61154;-27
2024/02/16 05:55:55;;;;;;;13.70;5.30;;;;;;;5.06;68.84;99894.48;105660;1256;61099;-27
2024/02/16 05:58:22;;;;;;;9.90;5.50;;;;;;;4.83;69.08;99887.92;105762;1254;74136;-27
2024/02/16 06:00:50;;;;;;;14.20;6.50;;;;;;;4.60;69.70;99890.13;105694;1254;74568;-27
2024/02/16 06:03:17;;;;;;;33.80;16.00;;;;;;;4.38;70.52;99891.07;105661;1254;73043;-27
2024/02/16 06:05:45;;;;;;;13.50;5.30;;;;;;;4.16;71.17;99889.90;105661;1254;61156;-27
2024/02/16 06:08:12;;;;;;;17.10;6.90;;;;;;;4.64;71.38;99892.55;105509;1259;61131;-28
2024/02/16 06:10:40;;;;;;;18.90;7.00;;;;;;;5.30;69.67;99895.64;105723;1254;72049;-27
2024/02/16 06:13:07;;;;;;;15.90;5.80;;;;;;;5.48;68.77;99896.39;105683;1254;73469;-27
2024/02/16 06:15:37;;;;;;;14.10;6.10;;;;;;;5.36;68.37;99896.41;105636;1254;72520;-27
2024/02/16 06:18:04;;;;;;;10.10;5.70;;;;;;;5.10;68.81;99900.52;105736;1253;61042;-28
2024/02/16 06:20:32;;;;;;;11.10;5.50;;;;;;;4.90;69.52;99900.05;105633;1254;60933;-27
2024/02/16 06:22:59;;;;;;;16.30;6.60;;;;;;;4.74;69.87;99903.65;105823;1254;73933;-27
2024/02/16 06:25:26;;;;;;;16.30;7.70;;;;;;;4.57;70.05;99916.08;105865;1254;74964;-27
2024/02/16 06:27:54;;;;;;;5.00;2.90;;;;;;;4.45;70.72;99920.36;105555;1254;72525;-27
2024/02/16 06:30:21;;;;;;;7.40;4.40;;;;;;;4.95;70.71;99924.05;105732;1254;61128;-27
2024/02/16 06:32:49;;;;;;;112.80;52.00;;;;;;;5.63;68.45;99923.44;105504;1259;61192;-27
2024/02/16 06:35:16;;;;;;;45.80;25.20;;;;;;;5.74;67.60;99927.24;105668;1254;75271;-27
2024/02/16 06:37:44;;;;;;;24.60;12.80;;;;;;;5.59;67.93;99926.70;105634;1254;74386;-27
2024/02/16 06:40:12;;;;;;;13.50;8.10;;;;;;;5.41;68.32;99921.48;105684;1254;73475;-27
2024/02/16 06:42:40;;;;;;;11.50;6.30;;;;;;;5.18;68.89;99923.41;105442;1254;61140;-27
2024/02/16 06:45:08;;;;;;;15.30;7.60;;;;;;;5.02;69.11;99922.91;105707;1259;61071;-28
2024/02/16 06:47:35;;;;;;;16.50;8.10;;;;;;;4.87;69.34;99925.12;105738;1255;73876;-27
2024/02/16 06:50:02;;;;;;;11.10;4.90;;;;;;;4.69;70.10;99934.33;105859;1255;74246;-27
2024/02/16 06:52:30;;;;;;;22.50;9.70;;;;;;;5.18;70.12;99933.53;105638;1254;72739;-27
2024/02/16 06:54:57;;;;;;;26.90;12.40;;;;;;;5.90;68.51;99938.55;105620;1253;61102;-27
2024/02/16 06:57:25;;;;;;;28.30;12.60;;;;;;;6.13;67.49;99944.19;105643;1256;61218;-27
2024/02/16 06:59:53;;;;;;;29.30;11.80;;;;;;;6.01;67.24;99946.27;105704;1254;73824;-28
2024/02/16 07:02:20;;;;;;;11.50;6.60;;;;;;;5.81;67.28;99944.63;105728;1256;73177;-27
2024/02/16 07:04:47;;;;;;;10.30;5.70;;;;;;;5.59;67.81;99938.60;105856;1253;71510;-27
2024/02/16 07:07:15;;;;;;;14.30;6.00;;;;;;;5.38;68.14;99936.27;105785;1254;61150;-27
2024/02/16 07:09:42;;;;;;;7.50;5.60;;;;;;;5.19;68.60;99934.54;105541;1254;61199;-27
2024/02/16 07:12:12;;;;;;;4.60;3.50;;;;;;;4.96;69.55;99937.42;105640;1254;73823;-28
2024/02/16 07:14:39;;;;;;;8.60;4.10;;;;;;;5.46;69.86;99943.66;105579;1254;73429;-27
2024/02/16 07:17:09;;;;;;;8.40;4.90;;;;;;;6.17;68.39;99948.49;105641;1254;72667;-28
2024/02/16 07:19:37;;;;;;;10.20;5.40;;;;;;;6.29;67.66;99952.40;105680;1254;61137;-27
2024/02/16 07:22:06;;;;;;;10.40;5.70;;;;;;;6.05;67.46;99956.97;105536;1254;61105;-27
2024/02/16 07:24:34;;;;;;;15.60;8.90;;;;;;;5.76;67.43;99948.65;105566;1254;72942;-27
2024/02/16 07:27:01;;;;;;;10.50;6.00;;;;;;;5.54;68.19;99948.10;105858;1254;74368;-27
2024/02/16 07:29:29;;;;;;;9.00;5.70;;;;;;;5.33;68.79;99949.95;105673;1253;72357;-27
2024/02/16 07:31:57;;;;;;;11.80;5.80;;;;;;;5.11;69.65;99952.64;105903;1253;61026;-27
2024/02/16 07:34:24;;;;;;;11.50;4.90;;;;;;;4.91;70.11;99950.23;105953;1254;61890;-27
2024/02/16 07:36:52;;;;;;;12.80;6.60;;;;;;;5.35;70.23;99951.90;105558;1254;75639;-27
2024/02/16 07:39:22;;;;;;;10.10;5.20;;;;;;;5.97;69.02;99954.39;105923;1256;76123;-28
2024/02/16 07:41:49;;;;;;;13.00;6.90;;;;;;;6.04;67.97;99956.52;105616;1259;73817;-28
2024/02/16 07:44:17;;;;;;;9.80;5.80;;;;;;;5.88;68.23;99955.34;105705;1254;62240;-27
2024/02/16 07:46:45;;;;;;;9.80;6.40;;;;;;;5.59;68.73;99956.00;105909;1256;61165;-27
2024/02/16 07:49:13;;;;;;;9.20;5.60;;;;;;;5.36;69.25;99955.66;105903;1254;73744;-27
2024/02/16 07:51:40;;;;;;;8.40;4.20;;;;;;;5.12;70.04;99954.13;105715;1259;74341;-27
2024/02/16 07:54:08;;;;;;;6.60;3.30;;;;;;;4.94;70.85;99953.73;105707;1254;73312;-27
2024/02/16 07:56:35;;;;;;;7.30;4.30;;;;;;;5.63;69.94;99956.14;105903;1255;61062;-27
2024/02/16 07:59:02;;;;;;;9.80;4.70;;;;;;;6.13;68.33;99954.37;105929;1257;61290;-27
2024/02/16 08:01:30;;;;;;;10.70;5.80;;;;;;;6.10;67.88;99952.11;105744;1254;75479;-28
2024/02/16 08:03:58;;;;;;;9.30;4.10;;;;;;;5.91;67.97;99952.61;105909;1254;75868;-27
2024/02/16 08:06:28;;;;;;;7.90;4.50;;;;;;;5.61;68.30;99951.39;105872;1254;72715;-28
2024/02/16 08:08:56;;;;;;;6.80;3.50;;;;;;;5.38;69.16;99949.02;105926;1256;61109;-27
2024/02/16 08:11:23;;;;;;;2.70;1.80;;;;;;;5.07;70.00;99946.45;105879;1256;62175;-27
2024/02/16 08:13:51;;;;;;;3.50;2.30;;;;;;;5.32;70.03;99953.58;105942;1254;73656;-27
2024/02/16 08:16:18;;;;;;;2.30;1.80;;;;;;;5.92;68.59;99958.61;105844;1256;76157;-27
2024/02/16 08:18:45;;;;;;;4.90;3.00;;;;;;;5.95;67.66;99963.95;105867;1253;72685;-27
2024/02/16 08:21:13;;;;;;;6.80;3.10;;;;;;;5.85;67.60;99965.63;105840;1254;61161;-28
2024/02/16 08:23:40;;;;;;;5.30;2.50;;;;;;;5.68;67.78;99963.02;105694;1260;61138;-27
2024/02/16 08:26:07;;;;;;;4.90;1.90;;;;;;;5.52;68.28;99966.65;105856;1254;73837;-27
2024/02/16 08:28:34;;;;;;;2.60;1.70;;;;;;;5.26;68.97;99966.45;105891;1254;74919;-27
2024/02/16 08:31:02;;;;;;;2.60;1.70;;;;;;;5.12;69.41;99970.83;105570;1254;74489;-27
2024/02/16 08:33:29;;;;;;;2.90;2.10;;;;;;;5.58;69.48;99968.95;105651;1254;61176;-27
2024/02/16 08:35:57;;;;;;;5.00;3.10;;;;;;;6.20;67.66;99970.58;105724;1252;61134;-27
2024/02/16 08:38:24;;;;;;;5.00;2.70;;;;;;;6.32;66.95;99963.62;105719;1254;75633;-27
2024/02/16 08:40:52;;;;;;;3.50;2.20;;;;;;;6.04;66.89;99968.71;105922;1254;76033;-27
2024/02/16 08:43:19;;;;;;;4.10;2.80;;;;;;;5.87;67.48;99971.77;105917;1256;72739;-27
2024/02/16 08:45:47;;;;;;;5.10;3.10;;;;;;;5.58;67.80;99969.11;105728;1254;61473;-27
2024/02/16 08:48:14;;;;;;;4.80;3.60;;;;;;;5.38;68.71;99968.33;105588;1259;61161;-27
2024/02/16 08:50:41;;;;;;;2.30;1.80;;;;;;;5.15;69.96;99969.84;105838;1254;73629;-27
2024/02/16 08:53:10;;;;;;;5.30;2.60;;;;;;;5.74;69.06;99972.19;105654;1256;74158;-27
2024/02/16 08:55:37;;;;;;;4.50;2.50;;;;;;;6.24;67.48;99976.09;105628;1254;74115;-27
2024/02/16 08:58:07;;;;;;;3.50;2.20;;;;;;;6.22;67.28;99979.42;105756;1253;61995;-27
2024/02/16 09:00:35;;;;;;;2.10;1.60;;;;;;;5.94;67.28;99977.98;105601;1259;62814;-28
2024/02/16 09:03:02;;;;;;;3.60;2.30;;;;;;;5.57;67.98;99975.57;105635;1254;72605;-27
2024/02/16 09:05:30;;;;;;;4.50;3.20;;;;;;;5.33;68.85;99976.97;105686;1254;75923;-27
2024/02/16 09:07:57;;;;;;;5.50;2.60;;;;;;;5.18;69.52;99979.20;105721;1254;74302;-27
2024/02/16 09:10:25;;;;;;;3.60;1.70;;;;;;;4.98;70.65;99983.48;105684;1254;62989;-27
2024/02/16 09:12:52;;;;;;;4.70;2.70;;;;;;;5.53;69.45;99983.80;105927;1253;62072;-28
2024/02/16 09:15:19;;;;;;;6.20;2.90;;;;;;;5.81;68.18;99985.48;105939;1256;75471;-27
2024/02/16 09:17:47;;;;;;;7.00;3.10;;;;;;;5.73;68.06;99987.02;105639;1259;76048;-27
2024/02/16 09:20:14;;;;;;;6.10;2.80;;;;;;;5.69;68.17;99986.88;105868;1254;75553;-27
2024/02/16 09:22:42;;;;;;;2.80;1.70;;;;;;;5.43;68.79;99987.90;105810;1254;61058;-27
2024/02/16 09:25:14;;;;;;;7.20;3.00;;;;;;;5.15;69.68;99987.90;105676;1254;61252;-27
2024/02/16 09:27:44;;;;;;;6.80;3.30;;;;;;;4.96;70.41;99986.48;105521;1256;71737;-27
2024/02/16 09:30:13;;;;;;;7.40;3.10;;;;;;;5.60;69.69;99987.63;105906;1256;76441;-27
2024/02/16 09:32:41;;;;;;;6.80;3.30;;;;;;;6.04;68.15;99990.09;105658;1254;72605;-27
2024/02/16 09:35:09;;;;;;;6.70;3.10;;;;;;;5.96;67.48;99992.89;105918;1253;61655;-28
2024/02/16 09:37:39;;;;;;;4.50;2.80;;;;;;;5.81;67.84;99989.76;105876;1254;61109;-27
2024/02/16 09:40:08;;;;;;;4.80;2.40;;;;;;;5.57;68.57;99989.67;105709;1260;74608;-28
2024/02/16 09:42:37;;;;;;;3.70;2.30;;;;;;;5.33;69.57;99985.77;105732;1259;75931;-27
2024/02/16 09:45:08;;;;;;;2.10;1.50;;;;;;;5.16;70.57;99982.38;105693;1254;74339;-27
2024/02/16 09:47:35;;;;;;;5.40;2.70;;;;;;;5.79;69.00;99984.88;105687;1252;62009;-27
2024/02/16 09:50:04;;;;;;;4.40;2.70;;;;;;;6.35;67.63;99986.22;105698;1259;62178;-27
2024/02/16 09:52:32;;;;;;;8.10;5.00;;;;;;;6.38;66.91;99985.04;105683;1254;73967;-27
2024/02/16 09:54:59;;;;;;;8.80;5.50;;;;;;;6.20;66.94;99983.34;105721;1254;75908;-27
2024/02/16 09:57:27;;;;;;;10.10;5.50;;;;;;;5.96;67.59;99986.14;105640;1254;74273;-27
2024/02/16 09:59:54;;;;;;;9.20;5.20;;;;;;;5.78;67.72;99987.51;105687;1254;61271;-27
2024/02/16 10:02:22;;;;;;;5.20;3.40;;;;;;;5.41;68.70;99983.52;105538;1259;61967;-27
2024/02/16 10:04:50;;;;;;;3.60;2.00;;;;;;;5.35;69.68;99983.05;105793;1254;75690;-27
2024/02/16 10:07:18;;;;;;;4.70;3.10;;;;;;;5.92;68.12;99989.77;105943;1257;76202;-27
2024/02/16 10:09:45;;;;;;;4.80;2.90;;;;;;;6.08;67.36;99990.11;105681;1256;74316;-27
2024/02/16 10:12:18;;;;;;;7.80;3.00;;;;;;;6.04;67.15;99991.29;105894;1254;62208;-27
2024/02/16 10:14:54;;;;;;;9.10;2.90;;;;;;;5.84;67.73;99982.76;105608;1253;61394;-27
2024/02/16 10:17:21;;;;;;;4.30;2.50;;;;;;;5.53;68.11;99982.59;105659;1254;72739;-27
2024/02/16 10:19:58;;;;;;;7.60;3.60;;;;;;;5.39;68.54;99982.21;105854;1254;76311;-27
2024/02/16 10:22:26;;;;;;;3.10;2.00;;;;;;;5.22;69.45;99979.66;105730;1254;74219;-27
2024/02/16 10:24:53;;;;;;;4.50;1.90;;;;;;;5.74;68.50;99981.84;105923;1252;62322;-27
2024/02/16 10:27:20;;;;;;;4.40;2.60;;;;;;;6.27;66.73;99984.71;105868;1257;62139;-27
2024/02/16 10:29:51;;;;;;;3.20;2.10;;;;;;;6.24;66.27;99985.70;105660;1254;76107;-27
2024/02/16 10:32:19;;;;;;;3.10;1.80;;;;;;;6.05;66.46;99986.98;105666;1258;76029;-27
2024/02/16 10:34:46;;;;;;;4.80;2.40;;;;;;;5.95;66.93;99986.56;105821;1254;74114;-27
2024/02/16 10:37:15;;;;;;;2.30;2.10;;;;;;;5.87;67.00;99982.61;105529;1254;61168;-27
2024/02/16 10:39:42;;;;;;;5.50;2.60;;;;;;;5.71;67.39;99980.59;105398;1257;62524;-27
2024/02/16 10:42:09;;;;;;;4.00;2.00;;;;;;;5.54;67.99;99979.63;105911;1256;75417;-27
2024/02/16 10:44:38;;;;;;;2.90;1.80;;;;;;;6.03;67.71;99977.21;105695;1254;76129;-27
2024/02/16 10:47:05;;;;;;;2.90;2.10;;;;;;;6.53;65.90;99976.06;105778;1252;74332;-28
2024/02/16 10:49:33;;;;;;;3.50;2.20;;;;;;;6.59;65.31;99973.33;105869;1253;62322;-27
2024/02/16 10:52:00;;;;;;;6.30;3.10;;;;;;;6.46;65.33;99972.05;105708;1259;61747;-28
2024/02/16 10:54:30;;;;;;;4.60;2.60;;;;;;;6.27;65.94;99969.23;105703;1259;75518;-28
2024/02/16 10:56:57;;;;;;;3.90;2.70;;;;;;;6.06;66.09;99971.58;105491;1254;75867;-28
2024/02/16 10:59:27;;;;;;;3.60;2.10;;;;;;;5.90;66.37;99968.17;105854;1254;72559;-28
2024/02/16 11:02:01;;;;;;;6.40;3.00;;;;;;;5.61;67.23;99966.23;105835;1254;61486;-27
2024/02/16 11:04:41;;;;;;;3.20;2.30;;;;;;;5.80;67.99;99966.22;105717;1257;62203;-27
2024/02/16 11:07:13;;;;;;;2.20;1.60;;;;;;;6.58;65.88;99961.64;105693;1259;74721;-28
2024/02/16 11:09:41;;;;;;;2.60;1.60;;;;;;;6.64;64.07;99957.19;105686;1255;76044;-28
2024/02/16 11:12:08;;;;;;;2.20;1.70;;;;;;;6.49;64.37;99959.48;105919;1254;74299;-27
2024/02/16 11:14:40;;;;;;;4.60;2.20;;;;;;;6.30;64.74;99957.34;105685;1254;62096;-28
2024/02/16 11:17:20;;;;;;;6.70;3.90;;;;;;;6.19;65.24;99956.51;105575;1254;61127;-27
2024/02/16 11:28:48;;;;;;;1.70;1.20;;;;;;;4.58;72.16;99948.42;103523;1280;615426;-29
2024/02/16 11:31:15;;;;;;;1.40;1.00;;;;;;;5.99;66.98;99946.39;104855;1272;62665;-27
2024/02/16 11:33:45;;;;;;;2.50;1.50;;;;;;;6.38;64.93;99942.79;105004;1267;61071;-26
2024/02/16 11:36:13;;;;;;;6.60;3.20;;;;;;;6.19;64.81;99941.31;104993;1267;73775;-27
2024/02/16 11:38:41;;;;;;;11.30;4.50;;;;;;;6.04;65.86;99937.71;105545;1263;74567;-27
2024/02/16 11:41:08;;;;;;;10.70;5.50;;;;;;;5.86;66.13;99940.41;105454;1260;210002;-27
2024/02/16 11:43:36;;;;;;;5.00;2.30;;;;;;;5.75;66.73;99939.41;105643;1264;61480;-26